Time;durP1;ratioP1;P1;durP2;ratioP2;P2;SDS_P1;SDS_P2;PMS_P1;PMS_P2;Temp;Humidity;BMP_temperature;BMP_pressure;BME280_temperature;BME280_humidity;BME280_pressure;Samples;Min_cycle;Max_cycle;Signal;HPM_P1;HPM_P2
2024/03/15 00:00:24;;;;;;;2.92;1.40;;;18.00;70.90;;;;;;6166446;23;20245;-83
2024/03/15 00:02:54;;;;;;;3.17;1.30;;;18.00;70.90;;;;;;6191737;23;20158;-84
2024/03/15 00:05:23;;;;;;;2.65;1.40;;;18.00;70.80;;;;;;6191011;23;20220;-83
2024/03/15 00:07:49;;;;;;;3.42;1.48;;;18.00;71.30;;;;;;6191089;23;20159;-83
2024/03/15 00:10:18;;;;;;;2.25;1.20;;;18.00;71.20;;;;;;6191751;23;20143;-83
2024/03/15 00:12:45;;;;;;;2.60;1.58;;;18.00;71.20;;;;;;6191419;23;20131;-83
2024/03/15 00:15:13;;;;;;;3.97;1.33;;;18.00;71.20;;;;;;6191167;23;20596;-84
2024/03/15 00:17:39;;;;;;;2.95;1.50;;;17.90;71.20;;;;;;6191602;23;20135;-82
2024/03/15 00:20:07;;;;;;;1.95;1.35;;;17.90;71.20;;;;;;6192732;23;20158;-83
2024/03/15 00:22:34;;;;;;;1.75;1.27;;;17.90;71.40;;;;;;6166912;23;20497;-83
2024/03/15 00:25:03;;;;;;;2.45;1.25;;;17.90;71.00;;;;;;6191504;23;20185;-84
2024/03/15 00:27:29;;;;;;;2.60;1.48;;;17.90;71.20;;;;;;6191722;23;20163;-82
2024/03/15 00:29:55;;;;;;;1.77;1.30;;;17.90;71.40;;;;;;6191258;23;20499;-83
2024/03/15 00:32:25;;;;;;;1.92;1.15;;;17.90;71.30;;;;;;6191157;23;20712;-82
2024/03/15 00:34:54;;;;;;;1.48;1.20;;;17.90;71.30;;;;;;6191804;23;20649;-83
2024/03/15 00:37:21;;;;;;;1.70;1.45;;;17.80;71.00;;;;;;6191628;23;20987;-83
2024/03/15 00:39:47;;;;;;;1.80;1.30;;;17.80;71.10;;;;;;6191545;23;20170;-83
2024/03/15 00:42:14;;;;;;;2.58;1.60;;;17.80;71.00;;;;;;6192778;23;20146;-84
2024/03/15 00:44:41;;;;;;;2.92;1.55;;;17.90;70.70;;;;;;6216003;23;20147;-83
2024/03/15 00:47:08;;;;;;;2.20;1.30;;;17.90;70.80;;;;;;6191430;23;20171;-83
2024/03/15 00:49:35;;;;;;;1.40;1.00;;;17.80;70.80;;;;;;6192683;23;20138;-83
2024/03/15 00:52:00;;;;;;;1.42;1.20;;;17.80;71.20;;;;;;6160668;23;20152;-83
2024/03/15 00:54:27;;;;;;;2.58;1.30;;;17.80;71.10;;;;;;6159327;23;20177;-83
2024/03/15 00:56:54;;;;;;;2.08;1.35;;;17.90;70.70;;;;;;6112098;23;20148;-84
2024/03/15 00:59:20;;;;;;;1.73;1.20;;;17.90;70.90;;;;;;6160202;23;20167;-84
2024/03/15 01:01:46;;;;;;;2.35;1.40;;;17.90;70.90;;;;;;6166820;23;20158;-83
2024/03/15 01:04:13;;;;;;;4.57;1.50;;;17.90;70.90;;;;;;6167764;23;20233;-83
2024/03/15 01:06:39;;;;;;;1.70;1.42;;;17.90;70.80;;;;;;6167121;23;20175;-84
2024/03/15 01:09:05;;;;;;;1.75;1.40;;;17.90;71.00;;;;;;6142709;23;20173;-83
2024/03/15 01:11:31;;;;;;;2.13;1.50;;;17.80;70.90;;;;;;6117809;23;20158;-83
2024/03/15 01:13:58;;;;;;;2.45;1.30;;;17.90;71.10;;;;;;6142108;23;20166;-84
2024/03/15 01:16:25;;;;;;;3.67;1.83;;;17.90;70.60;;;;;;6142832;23;20169;-84
2024/03/15 01:18:56;;;;;;;1.67;1.23;;;17.90;70.80;;;;;;6142199;23;20601;-83
2024/03/15 01:21:26;;;;;;;1.70;1.13;;;17.90;71.10;;;;;;6119057;23;20217;-83
2024/03/15 01:23:52;;;;;;;3.53;1.20;;;17.80;71.10;;;;;;6117445;23;20155;-84
2024/03/15 01:26:20;;;;;;;1.60;1.10;;;17.80;71.10;;;;;;6167110;23;20143;-83
2024/03/15 01:28:46;;;;;;;2.90;1.20;;;17.90;71.20;;;;;;6142549;23;20153;-83
2024/03/15 01:31:12;;;;;;;1.60;1.40;;;17.80;71.00;;;;;;6142182;23;20205;-83
2024/03/15 01:33:38;;;;;;;1.58;1.20;;;17.80;71.10;;;;;;6115859;23;20152;-83
2024/03/15 01:36:03;;;;;;;2.92;1.20;;;17.80;71.10;;;;;;6142621;23;20214;-83
2024/03/15 01:38:31;;;;;;;2.05;1.35;;;17.80;71.10;;;;;;6218269;23;20157;-84
2024/03/15 01:40:58;;;;;;;1.83;1.20;;;17.90;71.10;;;;;;6193150;23;20524;-84
2024/03/15 01:43:24;;;;;;;2.05;1.30;;;17.80;71.00;;;;;;6192634;23;20139;-83
2024/03/15 01:45:51;;;;;;;1.90;1.25;;;17.80;71.10;;;;;;6192739;23;20135;-83
2024/03/15 01:48:20;;;;;;;1.55;1.10;;;17.70;71.10;;;;;;6192241;23;20179;-83
2024/03/15 01:50:47;;;;;;;1.55;1.20;;;17.80;71.00;;;;;;6192930;23;20222;-83
2024/03/15 01:53:16;;;;;;;1.80;1.17;;;17.80;72.00;;;;;;6166667;23;20377;-82
2024/03/15 01:55:42;;;;;;;2.20;1.40;;;17.70;70.90;;;;;;6192888;23;20134;-83
2024/03/15 01:58:09;;;;;;;2.03;1.30;;;17.80;71.10;;;;;;6192033;23;20139;-84
2024/03/15 02:00:37;;;;;;;1.50;1.33;;;17.70;71.10;;;;;;6191929;23;20261;-82
2024/03/15 02:03:04;;;;;;;1.73;1.25;;;17.70;71.10;;;;;;6218283;23;20150;-84
2024/03/15 02:05:32;;;;;;;1.50;1.30;;;17.70;71.00;;;;;;6167901;23;20225;-83
2024/03/15 02:08:01;;;;;;;2.30;1.45;;;17.70;70.90;;;;;;6192699;23;20198;-83
2024/03/15 02:10:27;;;;;;;1.98;1.05;;;17.80;71.10;;;;;;6194443;23;20214;-83
2024/03/15 02:12:53;;;;;;;1.50;1.20;;;17.70;70.90;;;;;;6168843;23;20194;-83
2024/03/15 02:15:20;;;;;;;1.85;1.17;;;17.70;71.00;;;;;;6192240;23;20139;-83
2024/03/15 02:17:47;;;;;;;1.85;1.20;;;17.70;70.90;;;;;;6192945;23;20147;-84
2024/03/15 02:20:15;;;;;;;2.15;1.30;;;17.70;70.90;;;;;;6167226;23;20153;-83
2024/03/15 02:22:41;;;;;;;1.70;1.38;;;17.70;70.80;;;;;;6192211;23;20131;-83
2024/03/15 02:25:07;;;;;;;2.05;1.20;;;17.70;70.90;;;;;;6167887;23;20146;-83
2024/03/15 02:27:34;;;;;;;3.58;1.20;;;17.70;70.90;;;;;;6191430;23;20197;-83
2024/03/15 02:30:02;;;;;;;1.55;1.30;;;17.70;70.80;;;;;;6192919;23;20186;-83
2024/03/15 02:32:28;;;;;;;2.28;1.30;;;17.70;70.90;;;;;;6192531;23;20186;-83
2024/03/15 02:34:54;;;;;;;1.52;1.38;;;17.70;70.90;;;;;;6167663;23;20525;-83
2024/03/15 02:37:20;;;;;;;2.03;1.40;;;17.70;70.80;;;;;;6168147;23;20154;-83
2024/03/15 02:39:46;;;;;;;2.38;1.30;;;17.70;70.70;;;;;;6167829;23;20461;-83
2024/03/15 02:42:15;;;;;;;1.92;1.27;;;17.70;71.40;;;;;;6192452;23;20145;-84
2024/03/15 02:44:41;;;;;;;1.52;1.25;;;17.70;70.90;;;;;;6166954;23;20161;-83
2024/03/15 02:47:09;;;;;;;1.95;1.20;;;17.70;70.90;;;;;;6192049;23;20266;-83
2024/03/15 02:49:36;;;;;;;1.85;1.25;;;17.70;71.00;;;;;;6191782;23;20230;-83
2024/03/15 02:52:02;;;;;;;1.83;1.10;;;17.70;71.00;;;;;;6192475;23;20178;-83
2024/03/15 02:54:30;;;;;;;1.95;1.50;;;17.70;70.90;;;;;;6192465;23;20227;-83
2024/03/15 02:56:56;;;;;;;1.88;1.27;;;17.70;71.50;;;;;;6167586;23;20154;-83
2024/03/15 02:59:23;;;;;;;2.80;1.30;;;17.70;71.20;;;;;;6191973;23;20135;-82
2024/03/15 03:01:54;;;;;;;1.42;1.15;;;17.70;71.40;;;;;;6192898;23;20135;-83
2024/03/15 03:04:21;;;;;;;3.05;1.60;;;17.70;71.40;;;;;;6167478;23;20617;-83
2024/03/15 03:06:48;;;;;;;2.78;1.45;;;17.70;71.40;;;;;;6167367;23;20174;-83
2024/03/15 03:09:17;;;;;;;3.03;1.40;;;17.70;71.60;;;;;;6192382;23;20139;-83
2024/03/15 03:11:43;;;;;;;1.77;1.20;;;17.70;71.20;;;;;;6192509;23;20215;-83
2024/03/15 03:14:09;;;;;;;2.70;1.45;;;17.70;71.10;;;;;;6192977;23;20177;-84
2024/03/15 03:16:35;;;;;;;4.47;1.60;;;17.70;71.30;;;;;;6192926;23;20147;-84
2024/03/15 03:19:05;;;;;;;1.33;1.17;;;17.70;71.40;;;;;;6167290;23;20640;-83
2024/03/15 03:21:37;;;;;;;2.45;1.50;;;17.70;71.30;;;;;;6193150;23;20151;-83
2024/03/15 03:24:04;;;;;;;2.38;1.25;;;17.60;71.50;;;;;;6117668;23;20179;-85
2024/03/15 03:26:35;;;;;;;2.35;1.30;;;17.60;71.50;;;;;;6191959;23;20186;-84
2024/03/15 03:29:01;;;;;;;2.13;1.55;;;17.70;71.40;;;;;;6142039;23;20150;-83
2024/03/15 03:31:27;;;;;;;2.42;1.58;;;17.70;71.40;;;;;;6193456;23;20198;-83
2024/03/15 03:33:55;;;;;;;1.70;1.10;;;17.60;71.40;;;;;;6191039;23;20558;-83
2024/03/15 03:36:27;;;;;;;1.55;1.23;;;17.60;71.60;;;;;;6166195;23;20289;-83
2024/03/15 03:38:53;;;;;;;1.27;1.10;;;17.60;71.40;;;;;;6141458;23;20467;-84
2024/03/15 03:41:20;;;;;;;1.92;1.23;;;17.60;71.60;;;;;;6191475;23;20602;-83
2024/03/15 03:43:55;;;;;;;1.77;1.40;;;17.60;72.00;;;;;;6191483;23;20185;-82
2024/03/15 03:46:25;;;;;;;1.42;1.20;;;17.60;71.90;;;;;;6116125;23;20185;-83
2024/03/15 03:48:50;;;;;;;3.33;1.50;;;17.60;71.90;;;;;;6116189;23;20155;-83
2024/03/15 03:51:18;;;;;;;2.28;1.40;;;17.60;72.00;;;;;;6192256;23;20158;-86
2024/03/15 03:53:46;;;;;;;2.30;1.20;;;17.60;71.60;;;;;;6192783;23;20799;-83
2024/03/15 03:56:15;;;;;;;1.60;1.13;;;17.60;71.80;;;;;;6191477;23;20150;-83
2024/03/15 03:58:44;;;;;;;1.50;1.40;;;17.60;71.70;;;;;;6192554;23;20450;-84
2024/03/15 04:01:11;;;;;;;1.85;1.30;;;17.60;71.80;;;;;;6167014;23;20461;-83
2024/03/15 04:03:37;;;;;;;1.40;1.30;;;17.60;72.00;;;;;;6166369;23;20142;-83
2024/03/15 04:06:05;;;;;;;2.95;1.30;;;17.60;71.80;;;;;;6191798;23;20139;-84
2024/03/15 04:08:33;;;;;;;1.63;1.25;;;17.60;72.00;;;;;;6192120;23;20154;-83
2024/03/15 04:10:59;;;;;;;1.25;1.15;;;17.60;71.80;;;;;;6167202;23;20151;-83
2024/03/15 04:13:29;;;;;;;2.90;1.50;;;17.60;71.90;;;;;;6191507;23;20296;-83
2024/03/15 04:15:54;;;;;;;2.20;1.25;;;17.60;71.90;;;;;;6166356;23;20157;-82
2024/03/15 04:18:21;;;;;;;2.53;1.20;;;17.60;72.00;;;;;;6165477;23;20229;-83
2024/03/15 04:20:47;;;;;;;2.38;1.13;;;17.60;71.90;;;;;;6190706;23;20146;-82
2024/03/15 04:23:14;;;;;;;2.08;1.20;;;17.60;71.90;;;;;;6191507;23;20131;-83
2024/03/15 04:25:43;;;;;;;1.10;1.00;;;17.60;72.10;;;;;;6191421;23;20133;-83
2024/03/15 04:28:11;;;;;;;1.50;1.25;;;17.60;71.80;;;;;;6165125;23;20201;-83
2024/03/15 04:30:36;;;;;;;1.88;1.40;;;17.60;71.90;;;;;;6165272;23;20150;-83
2024/03/15 04:33:05;;;;;;;2.38;1.25;;;17.60;71.90;;;;;;6191290;23;20145;-84
2024/03/15 04:35:35;;;;;;;2.67;1.30;;;17.60;71.80;;;;;;6166531;23;20147;-83
2024/03/15 04:38:06;;;;;;;1.73;1.27;;;17.60;71.90;;;;;;6167498;23;20646;-83
2024/03/15 04:40:31;;;;;;;2.70;1.30;;;17.60;71.90;;;;;;6118809;23;20157;-84
2024/03/15 04:42:57;;;;;;;2.70;1.20;;;17.60;72.00;;;;;;6168366;23;20242;-84
2024/03/15 04:45:23;;;;;;;1.80;1.27;;;17.60;71.80;;;;;;6194729;23;20131;-84
2024/03/15 04:47:51;;;;;;;1.13;1.02;;;17.60;71.90;;;;;;6168905;23;20190;-82
2024/03/15 04:50:17;;;;;;;1.77;1.17;;;17.60;71.90;;;;;;6193174;23;20585;-84
2024/03/15 04:52:43;;;;;;;1.42;1.17;;;17.60;71.90;;;;;;6193172;23;20230;-83
2024/03/15 04:55:09;;;;;;;4.00;1.38;;;17.50;72.00;;;;;;6193942;23;20226;-84
2024/03/15 04:57:38;;;;;;;1.50;1.25;;;17.60;71.90;;;;;;6168145;23;20154;-84
2024/03/15 05:02:43;;;;;;;1.33;1.17;;;17.60;72.00;;;;;;6193042;23;20139;-83
2024/03/15 05:05:14;;;;;;;1.88;1.30;;;17.60;72.00;;;;;;6118376;23;20150;-82
2024/03/15 05:07:44;;;;;;;1.77;1.13;;;17.60;72.00;;;;;;6118674;23;20193;-84
2024/03/15 05:10:14;;;;;;;1.50;1.25;;;17.60;71.80;;;;;;6167374;23;20151;-83
2024/03/15 05:12:42;;;;;;;2.05;1.50;;;17.60;71.90;;;;;;6168463;23;20147;-83
2024/03/15 05:15:10;;;;;;;2.00;1.27;;;17.60;71.80;;;;;;6168407;23;20546;-83
2024/03/15 05:17:36;;;;;;;2.00;1.00;;;17.60;72.10;;;;;;6192934;23;20131;-84
2024/03/15 05:20:03;;;;;;;1.52;1.05;;;17.60;71.90;;;;;;6168308;23;20154;-83
2024/03/15 05:22:29;;;;;;;1.50;1.20;;;17.60;71.90;;;;;;6193568;23;20135;-83
2024/03/15 05:25:00;;;;;;;2.05;1.35;;;17.60;71.80;;;;;;6193461;23;20139;-83
2024/03/15 05:27:28;;;;;;;2.33;1.10;;;17.60;71.90;;;;;;6166755;23;20193;-84
2024/03/15 05:30:00;;;;;;;2.08;1.30;;;17.60;72.10;;;;;;6166701;23;20151;-83
2024/03/15 05:32:30;;;;;;;1.52;1.23;;;17.60;71.80;;;;;;6142430;23;20218;-82
2024/03/15 05:34:57;;;;;;;1.60;1.10;;;17.50;72.00;;;;;;6191099;23;20154;-83
2024/03/15 05:37:23;;;;;;;1.60;1.30;;;17.60;71.80;;;;;;6166974;23;20159;-83
2024/03/15 05:39:49;;;;;;;1.25;1.05;;;17.60;71.90;;;;;;6192414;23;20174;-83
2024/03/15 05:42:17;;;;;;;1.88;1.23;;;17.60;71.90;;;;;;6167486;23;20158;-83
2024/03/15 05:44:45;;;;;;;1.27;1.10;;;17.60;71.90;;;;;;6192686;23;20161;-83
2024/03/15 05:47:12;;;;;;;1.70;1.10;;;17.60;71.90;;;;;;6166436;23;20633;-83
2024/03/15 05:49:38;;;;;;;1.75;1.10;;;17.60;71.80;;;;;;6192541;23;20181;-83
2024/03/15 05:52:04;;;;;;;1.42;1.10;;;17.60;71.80;;;;;;6189818;23;20574;-85
2024/03/15 05:54:30;;;;;;;2.40;1.50;;;17.60;71.90;;;;;;6163401;23;20158;-84
2024/03/15 05:56:56;;;;;;;1.98;1.27;;;17.60;71.90;;;;;;6188942;23;20143;-83
2024/03/15 05:59:23;;;;;;;1.70;1.40;;;17.60;71.80;;;;;;6189898;23;20131;-85
2024/03/15 06:01:49;;;;;;;2.67;1.20;;;17.50;71.40;;;;;;6189764;23;20170;-83
2024/03/15 06:04:18;;;;;;;1.85;1.27;;;17.60;71.80;;;;;;6188572;23;20147;-84
2024/03/15 06:06:44;;;;;;;2.42;1.35;;;17.60;71.90;;;;;;6136571;23;20244;-84
2024/03/15 06:09:13;;;;;;;1.60;1.25;;;17.50;71.60;;;;;;6188934;23;20586;-84
2024/03/15 06:11:38;;;;;;;1.30;1.20;;;17.60;71.90;;;;;;6162571;23;20182;-83
2024/03/15 06:14:11;;;;;;;2.15;1.38;;;17.60;72.10;;;;;;6188423;23;20131;-85
2024/03/15 06:16:38;;;;;;;2.08;1.35;;;17.60;71.60;;;;;;6139511;23;20154;-85
2024/03/15 06:19:04;;;;;;;1.30;1.10;;;17.60;71.50;;;;;;6163942;23;20467;-83
2024/03/15 06:21:34;;;;;;;1.80;1.17;;;17.60;71.90;;;;;;6189234;23;20205;-84
2024/03/15 06:24:01;;;;;;;1.50;1.20;;;17.60;71.40;;;;;;6161597;23;20162;-84
2024/03/15 06:26:28;;;;;;;2.35;1.15;;;17.60;71.80;;;;;;6186760;23;20198;-85
2024/03/15 06:28:55;;;;;;;1.88;1.30;;;17.60;71.80;;;;;;6102144;23;20160;-83
2024/03/15 06:31:21;;;;;;;1.70;1.20;;;17.60;71.70;;;;;;6126144;23;20199;-84
2024/03/15 06:33:56;;;;;;;1.80;1.30;;;17.60;71.50;;;;;;6126277;23;20156;-82
2024/03/15 06:36:29;;;;;;;2.03;1.38;;;17.60;71.70;;;;;;6122749;23;20174;-83
2024/03/15 06:39:19;;;;;;;2.08;1.42;;;17.60;71.90;;;;;;6121326;23;20156;-82
2024/03/15 06:41:50;;;;;;;1.50;1.02;;;17.50;71.70;;;;;;6102651;23;20156;-82
2024/03/15 06:44:20;;;;;;;1.60;1.15;;;17.60;71.80;;;;;;6123834;23;20224;-82
2024/03/15 06:49:33;;;;;;;1.60;1.27;;;17.60;71.40;;;;;;6122153;23;20163;-82
2024/03/15 06:54:46;;;;;;;2.13;1.40;;;17.50;71.90;;;;;;6120890;23;20159;-82
2024/03/15 06:57:12;;;;;;;3.35;1.30;;;17.50;72.10;;;;;;6121223;23;20155;-82
2024/03/15 06:59:38;;;;;;;1.67;1.15;;;17.50;72.00;;;;;;6121804;23;20156;-84
2024/03/15 07:02:03;;;;;;;1.25;1.00;;;17.50;72.10;;;;;;6122781;23;20163;-83
2024/03/15 07:04:29;;;;;;;2.17;1.42;;;17.50;72.10;;;;;;6124024;23;20571;-83
2024/03/15 07:06:55;;;;;;;2.15;1.30;;;17.50;72.00;;;;;;6169209;23;20182;-83
2024/03/15 07:09:25;;;;;;;1.60;1.20;;;17.50;72.10;;;;;;6184519;23;20576;-84
2024/03/15 07:11:51;;;;;;;2.45;1.58;;;17.60;72.70;;;;;;6185466;23;20286;-83
2024/03/15 07:14:18;;;;;;;1.98;1.30;;;17.60;71.90;;;;;;6185772;23;20142;-82
2024/03/15 07:16:48;;;;;;;2.25;1.35;;;17.60;71.60;;;;;;6184541;23;20139;-83
2024/03/15 07:19:15;;;;;;;1.25;1.15;;;17.60;71.60;;;;;;6137897;23;20161;-82
2024/03/15 07:21:42;;;;;;;1.33;1.10;;;17.60;71.50;;;;;;6192494;23;20131;-83
2024/03/15 07:24:09;;;;;;;2.92;1.65;;;17.70;70.60;;;;;;6192011;23;20142;-82
2024/03/15 07:26:37;;;;;;;1.88;1.40;;;17.70;70.70;;;;;;6193312;23;20169;-81
2024/03/15 07:29:04;;;;;;;2.13;1.23;;;17.70;70.90;;;;;;6134182;23;20151;-83
2024/03/15 07:31:30;;;;;;;1.75;1.40;;;17.70;70.70;;;;;;6184611;23;20194;-82
2024/03/15 07:33:57;;;;;;;1.42;1.08;;;17.70;70.70;;;;;;6185256;23;20224;-82
2024/03/15 07:36:27;;;;;;;1.70;1.15;;;17.80;70.60;;;;;;6184159;23;20135;-83
2024/03/15 07:38:57;;;;;;;2.58;1.52;;;17.80;70.70;;;;;;6159492;23;20273;-82
2024/03/15 07:41:31;;;;;;;1.23;1.13;;;17.80;70.90;;;;;;6159770;23;20155;-81
2024/03/15 07:44:03;;;;;;;1.35;1.05;;;17.70;70.80;;;;;;6090338;23;20145;-82
2024/03/15 07:46:29;;;;;;;1.27;1.05;;;17.70;71.00;;;;;;6159873;23;20151;-83
2024/03/15 07:48:57;;;;;;;1.38;1.20;;;17.70;71.10;;;;;;6159423;23;20161;-83
2024/03/15 07:51:24;;;;;;;2.10;1.50;;;17.70;71.10;;;;;;6186101;23;20214;-83
2024/03/15 07:53:49;;;;;;;1.95;1.40;;;17.70;70.90;;;;;;6184718;23;20202;-83
2024/03/15 07:56:21;;;;;;;2.40;1.55;;;17.80;70.70;;;;;;6184558;23;20142;-85
2024/03/15 07:58:52;;;;;;;1.90;1.30;;;17.70;71.00;;;;;;6100344;23;20159;-84
2024/03/15 08:01:20;;;;;;;1.60;1.20;;;17.70;71.00;;;;;;6099703;23;20156;-83
2024/03/15 08:03:54;;;;;;;1.30;1.17;;;17.70;71.10;;;;;;6099485;23;20147;-83
2024/03/15 08:06:22;;;;;;;1.92;1.52;;;17.80;70.90;;;;;;6098687;23;20191;-84
2024/03/15 08:09:19;;;;;;;2.00;1.40;;;17.70;71.60;;;;;;6075041;23;20226;-83
2024/03/15 08:11:52;;;;;;;4.15;1.30;;;17.70;71.10;;;;;;6099298;23;20159;-84
2024/03/15 08:14:21;;;;;;;1.60;1.33;;;17.70;71.20;;;;;;6126511;23;20550;-83
2024/03/15 08:16:48;;;;;;;1.35;1.17;;;17.70;71.20;;;;;;6126114;23;20219;-83
2024/03/15 08:19:18;;;;;;;1.67;1.23;;;17.70;71.30;;;;;;6126192;23;20206;-83
2024/03/15 08:21:45;;;;;;;4.00;1.15;;;17.70;71.00;;;;;;6044054;23;20694;-83
2024/03/15 08:24:26;;;;;;;1.50;1.08;;;17.70;71.20;;;;;;6068069;23;20519;-84
2024/03/15 08:26:57;;;;;;;2.65;1.30;;;17.70;71.20;;;;;;6050220;23;20180;-83
2024/03/15 08:29:23;;;;;;;2.38;1.30;;;17.70;71.00;;;;;;6022674;23;20507;-83
2024/03/15 08:31:52;;;;;;;2.40;1.10;;;17.80;70.90;;;;;;6016672;23;20197;-84
2024/03/15 08:34:18;;;;;;;1.60;1.27;;;17.80;70.80;;;;;;6017823;23;20194;-84
2024/03/15 08:36:45;;;;;;;1.65;0.98;;;17.80;71.00;;;;;;6086387;23;20187;-83
2024/03/15 08:39:26;;;;;;;2.15;1.17;;;17.70;70.20;;;;;;6046774;23;20185;-83
2024/03/15 08:41:53;;;;;;;3.92;1.17;;;17.80;70.30;;;;;;6048872;23;20153;-83
2024/03/15 08:44:24;;;;;;;2.35;1.20;;;17.80;70.90;;;;;;6042624;23;20168;-83
2024/03/15 08:46:54;;;;;;;1.42;1.00;;;17.90;70.70;;;;;;6015776;23;20182;-84
2024/03/15 08:49:26;;;;;;;2.03;1.40;;;17.90;70.80;;;;;;6039399;23;20158;-83
2024/03/15 08:51:52;;;;;;;1.80;1.30;;;17.80;70.80;;;;;;6039815;23;20161;-83
2024/03/15 08:54:19;;;;;;;2.65;1.40;;;17.80;70.60;;;;;;6039512;23;20181;-84
2024/03/15 08:56:45;;;;;;;1.35;1.23;;;17.80;70.70;;;;;;6057461;23;20157;-83
2024/03/15 08:59:11;;;;;;;2.63;1.33;;;17.80;70.50;;;;;;6097519;23;20159;-83
2024/03/15 09:01:38;;;;;;;3.08;1.45;;;17.90;70.00;;;;;;6126230;23;20183;-83
2024/03/15 09:04:05;;;;;;;2.55;1.00;;;17.90;69.80;;;;;;6150978;23;20187;-82
2024/03/15 09:06:34;;;;;;;1.88;1.20;;;17.90;70.00;;;;;;6126481;23;20519;-83
2024/03/15 09:09:07;;;;;;;1.95;1.60;;;17.90;70.30;;;;;;6150888;23;20148;-83
2024/03/15 09:11:33;;;;;;;3.00;1.70;;;17.90;70.30;;;;;;6079344;23;20159;-82
2024/03/15 09:13:59;;;;;;;2.28;1.35;;;17.90;69.80;;;;;;6101803;23;20148;-83
2024/03/15 09:16:24;;;;;;;1.85;1.35;;;17.90;69.70;;;;;;6157329;23;20168;-83
2024/03/15 09:18:52;;;;;;;1.92;1.17;;;17.90;70.00;;;;;;6158615;23;20139;-82
2024/03/15 09:21:20;;;;;;;2.85;1.30;;;17.90;69.60;;;;;;6131578;23;20148;-83
2024/03/15 09:23:47;;;;;;;1.35;1.25;;;17.90;69.60;;;;;;6157770;23;20136;-82
2024/03/15 09:26:16;;;;;;;1.60;1.30;;;17.90;69.80;;;;;;6081507;23;20185;-83
2024/03/15 09:28:47;;;;;;;1.67;1.23;;;17.90;70.20;;;;;;6154915;23;20187;-82
2024/03/15 09:31:14;;;;;;;2.42;1.27;;;17.90;70.00;;;;;;6140499;23;20183;-83
2024/03/15 09:33:43;;;;;;;1.70;1.20;;;17.90;69.70;;;;;;6184956;23;20143;-82
2024/03/15 09:36:16;;;;;;;1.50;1.08;;;18.00;69.90;;;;;;6184839;23;20637;-82
2024/03/15 09:38:45;;;;;;;1.50;1.30;;;17.90;69.80;;;;;;6186383;23;20127;-82
2024/03/15 09:41:12;;;;;;;1.80;1.40;;;17.90;69.80;;;;;;6186107;23;20134;-82
2024/03/15 09:43:39;;;;;;;1.70;1.33;;;18.00;69.50;;;;;;6186881;23;20140;-83
2024/03/15 09:46:06;;;;;;;1.90;1.45;;;18.00;69.50;;;;;;6185452;23;20640;-82
2024/03/15 09:48:34;;;;;;;1.67;1.20;;;18.00;69.50;;;;;;6185100;23;20178;-82
2024/03/15 09:51:03;;;;;;;1.60;1.23;;;18.00;69.80;;;;;;6185489;23;20185;-83
2024/03/15 09:53:40;;;;;;;1.20;1.10;;;18.00;69.60;;;;;;6184643;23;20555;-83
2024/03/15 09:56:14;;;;;;;4.30;1.17;;;18.00;69.50;;;;;;6130373;23;20166;-83
2024/03/15 09:58:41;;;;;;;3.35;1.30;;;18.00;69.40;;;;;;6153613;23;20174;-82
2024/03/15 10:01:11;;;;;;;1.48;1.27;;;18.10;70.00;;;;;;6153801;23;20206;-82
2024/03/15 10:03:37;;;;;;;2.20;1.00;;;18.10;69.40;;;;;;6056782;23;20159;-83
2024/03/15 10:06:05;;;;;;;1.48;1.15;;;18.10;69.10;;;;;;6153826;23;20283;-82
2024/03/15 10:08:32;;;;;;;2.10;1.48;;;18.10;69.00;;;;;;6153741;23;20514;-81
2024/03/15 10:10:58;;;;;;;1.60;1.33;;;18.10;69.40;;;;;;6080475;23;20155;-82
2024/03/15 10:13:27;;;;;;;1.77;1.33;;;18.10;69.00;;;;;;6153848;23;20140;-82
2024/03/15 10:15:55;;;;;;;1.50;1.40;;;18.10;69.20;;;;;;6129787;23;20151;-82
2024/03/15 10:18:21;;;;;;;1.75;1.30;;;18.10;69.40;;;;;;6129927;23;20486;-83
2024/03/15 10:20:47;;;;;;;1.38;1.25;;;18.10;69.10;;;;;;6154501;23;20193;-83
2024/03/15 10:23:14;;;;;;;2.00;1.38;;;18.10;69.40;;;;;;6154206;23;20159;-83
2024/03/15 10:25:40;;;;;;;1.77;1.30;;;18.00;69.00;;;;;;6129826;23;20143;-83
2024/03/15 10:28:10;;;;;;;1.80;1.30;;;18.10;69.00;;;;;;6185940;23;20189;-83
2024/03/15 10:30:36;;;;;;;2.53;1.33;;;18.10;69.10;;;;;;6184373;23;20139;-82
2024/03/15 10:33:03;;;;;;;1.40;1.30;;;18.10;69.00;;;;;;6185880;23;20542;-82
2024/03/15 10:35:29;;;;;;;2.30;1.60;;;18.00;69.30;;;;;;6185788;23;20135;-82
2024/03/15 10:37:55;;;;;;;1.33;1.23;;;18.20;68.90;;;;;;6185984;23;20187;-81
2024/03/15 10:40:23;;;;;;;1.95;1.50;;;18.10;69.00;;;;;;6184232;23;20147;-83
2024/03/15 10:42:51;;;;;;;1.70;1.20;;;18.10;69.10;;;;;;6183893;23;20622;-81
2024/03/15 10:45:19;;;;;;;1.83;1.30;;;18.10;69.10;;;;;;6185784;23;20138;-81
2024/03/15 10:47:45;;;;;;;1.33;1.23;;;18.10;69.10;;;;;;6185906;23;20158;-81
2024/03/15 10:50:15;;;;;;;2.20;1.23;;;18.10;68.90;;;;;;6184258;23;20142;-81
2024/03/15 10:52:42;;;;;;;1.33;1.23;;;18.10;68.80;;;;;;6185968;23;20575;-81
2024/03/15 10:55:16;;;;;;;1.85;1.50;;;18.10;68.70;;;;;;6185579;23;20136;-81
2024/03/15 10:57:42;;;;;;;1.52;1.42;;;18.00;68.20;;;;;;6186336;23;20465;-82
2024/03/15 11:00:18;;;;;;;1.70;1.30;;;18.10;68.50;;;;;;6184902;23;20618;-83
2024/03/15 11:02:44;;;;;;;1.30;1.20;;;18.10;68.90;;;;;;6185674;23;20565;-83
2024/03/15 11:05:21;;;;;;;2.05;1.48;;;18.10;68.60;;;;;;6185624;23;20139;-82
2024/03/15 11:07:48;;;;;;;1.50;1.40;;;18.10;68.50;;;;;;6185765;23;20169;-83
2024/03/15 11:10:15;;;;;;;1.85;1.38;;;18.10;68.50;;;;;;6211464;23;20206;-83
2024/03/15 11:12:40;;;;;;;1.52;1.25;;;18.20;68.60;;;;;;6186459;23;20147;-82
2024/03/15 11:15:12;;;;;;;1.40;1.30;;;18.10;68.90;;;;;;6183859;23;20135;-83
2024/03/15 11:17:38;;;;;;;1.42;1.30;;;18.20;68.90;;;;;;6183796;23;20162;-83
2024/03/15 11:20:05;;;;;;;1.70;1.58;;;18.10;68.80;;;;;;6183802;23;20159;-84
2024/03/15 11:22:31;;;;;;;1.60;1.17;;;18.10;69.10;;;;;;6183759;23;20131;-83
2024/03/15 11:24:58;;;;;;;1.58;1.35;;;18.10;68.60;;;;;;6159322;23;20174;-82
2024/03/15 11:27:27;;;;;;;1.45;1.30;;;18.10;69.00;;;;;;6184793;23;20506;-83
2024/03/15 11:29:56;;;;;;;1.92;1.48;;;18.10;68.90;;;;;;6158421;23;20158;-83
2024/03/15 11:32:25;;;;;;;4.07;1.52;;;18.10;68.60;;;;;;6183816;23;20183;-82
2024/03/15 11:34:51;;;;;;;1.35;1.25;;;18.10;69.10;;;;;;6133634;23;20151;-82
2024/03/15 11:37:22;;;;;;;2.65;1.60;;;18.10;68.70;;;;;;6183927;23;20178;-83
2024/03/15 11:39:59;;;;;;;1.70;1.23;;;18.10;68.80;;;;;;6185244;23;20138;-83
2024/03/15 11:42:24;;;;;;;1.45;1.20;;;18.10;69.10;;;;;;6183885;23;20131;-83
2024/03/15 11:44:51;;;;;;;2.78;1.52;;;18.10;68.70;;;;;;6183408;23;20138;-83
2024/03/15 11:47:19;;;;;;;2.40;1.50;;;18.10;68.80;;;;;;6183544;23;20594;-84
2024/03/15 11:49:45;;;;;;;1.70;1.40;;;18.10;68.60;;;;;;6132952;23;20181;-83
2024/03/15 11:52:13;;;;;;;2.17;1.60;;;18.10;68.80;;;;;;6184072;23;20186;-83
2024/03/15 11:54:39;;;;;;;1.70;1.52;;;18.10;68.60;;;;;;6156982;23;20155;-82
2024/03/15 11:57:05;;;;;;;1.50;1.40;;;18.10;68.70;;;;;;6184789;23;20478;-83
2024/03/15 11:59:39;;;;;;;1.60;1.50;;;18.10;68.90;;;;;;6183317;23;20155;-83
2024/03/15 12:02:07;;;;;;;3.13;1.55;;;18.10;68.70;;;;;;6184813;23;20141;-83
2024/03/15 12:04:33;;;;;;;1.60;1.50;;;18.10;68.70;;;;;;6183294;23;20154;-83
2024/03/15 12:07:00;;;;;;;1.80;1.50;;;18.20;68.50;;;;;;6184585;23;20241;-82
2024/03/15 12:09:27;;;;;;;1.55;1.45;;;18.20;68.30;;;;;;6183113;23;20901;-83
2024/03/15 12:11:53;;;;;;;1.42;1.30;;;18.20;68.90;;;;;;6183242;23;20131;-84
2024/03/15 12:14:19;;;;;;;1.58;1.48;;;18.10;68.70;;;;;;6158661;23;20158;-84
2024/03/15 12:16:45;;;;;;;1.67;1.58;;;18.10;68.70;;;;;;6183099;23;20537;-84
2024/03/15 12:19:13;;;;;;;2.15;1.60;;;18.10;68.70;;;;;;6183573;23;20596;-85
2024/03/15 12:21:45;;;;;;;1.45;1.27;;;18.20;68.50;;;;;;6183642;23;20142;-83
2024/03/15 12:24:11;;;;;;;2.88;1.30;;;18.20;68.60;;;;;;6134148;23;20178;-83
2024/03/15 12:26:37;;;;;;;1.40;1.23;;;18.20;68.60;;;;;;6183948;23;20256;-83
2024/03/15 12:29:03;;;;;;;2.30;1.52;;;18.10;68.90;;;;;;6183747;23;20234;-83
2024/03/15 12:31:36;;;;;;;1.27;1.17;;;18.10;68.60;;;;;;6208652;23;20244;-83
2024/03/15 12:34:02;;;;;;;1.38;1.20;;;18.10;68.70;;;;;;6184172;23;20578;-84
2024/03/15 12:36:28;;;;;;;1.90;1.58;;;18.10;69.10;;;;;;6158962;23;20243;-83
2024/03/15 12:38:54;;;;;;;1.55;1.40;;;18.00;68.80;;;;;;6158936;23;20253;-84
2024/03/15 12:41:20;;;;;;;1.83;1.35;;;18.10;68.60;;;;;;6183386;23;20649;-84
2024/03/15 12:43:46;;;;;;;1.42;1.20;;;18.10;68.60;;;;;;6183507;23;20170;-84
2024/03/15 12:46:12;;;;;;;1.42;1.33;;;18.10;68.60;;;;;;6183490;23;20139;-82
2024/03/15 12:48:38;;;;;;;2.72;1.38;;;18.20;68.90;;;;;;6185296;23;20170;-84
2024/03/15 12:51:04;;;;;;;2.50;1.50;;;18.10;68.50;;;;;;6159408;23;20163;-84
2024/03/15 12:53:30;;;;;;;1.55;1.20;;;18.10;68.60;;;;;;6183537;23;20131;-84
2024/03/15 12:55:56;;;;;;;1.23;1.13;;;18.20;68.70;;;;;;6184424;23;20142;-83
2024/03/15 12:58:22;;;;;;;1.38;1.27;;;18.10;68.50;;;;;;6185757;23;20217;-83